Time;durP1;ratioP1;P1;durP2;ratioP2;P2;SDS_P1;SDS_P2;PMS_P1;PMS_P2;Temp;Humidity;BMP_temperature;BMP_pressure;BME280_temperature;BME280_humidity;BME280_pressure;Samples;Min_cycle;Max_cycle;Signal;HPM_P1;HPM_P2
2022/08/31 00:06:21;;;;;;;13.03;7.80;;;;;;;;;;5004287;28;21015;-54
2022/08/31 00:08:47;;;;;;;13.00;7.40;;;;;;;;;;5001299;28;20440;-54
2022/08/31 00:11:13;;;;;;;15.33;9.40;;;;;;;;;;5012534;28;20424;-54
2022/08/31 00:13:42;;;;;;;8.27;5.33;;;;;;;;;;5007418;28;20434;-54
2022/08/31 00:16:09;;;;;;;9.13;5.90;;;;;;;;;;5010286;28;20594;-54
2022/08/31 00:18:35;;;;;;;4.93;4.50;;;;;;;;;;5007638;28;20468;-54
2022/08/31 00:21:01;;;;;;;6.90;4.27;;;;;;;;;;5011781;28;20800;-54
2022/08/31 00:23:27;;;;;;;5.60;4.20;;;;;;;;;;4963677;28;20538;-54
2022/08/31 00:25:53;;;;;;;5.83;4.60;;;;;;;;;;5012130;28;20447;-54
2022/08/31 00:28:19;;;;;;;6.67;4.90;;;;;;;;;;5003611;28;20419;-54
2022/08/31 00:30:45;;;;;;;6.33;5.20;;;;;;;;;;5010547;28;20471;-55
2022/08/31 00:33:11;;;;;;;5.40;4.90;;;;;;;;;;5006451;28;20438;-56
2022/08/31 00:35:37;;;;;;;5.80;4.87;;;;;;;;;;5009282;28;20858;-54
2022/08/31 00:38:04;;;;;;;6.67;5.00;;;;;;;;;;4986291;28;20451;-54
2022/08/31 00:40:30;;;;;;;6.80;4.40;;;;;;;;;;5017103;28;20956;-57
2022/08/31 00:42:55;;;;;;;6.63;5.03;;;;;;;;;;4998022;28;20433;-54
2022/08/31 00:45:22;;;;;;;5.73;5.23;;;;;;;;;;5008358;28;20191;-53
2022/08/31 00:47:47;;;;;;;5.30;4.60;;;;;;;;;;4989889;28;20193;-54
2022/08/31 00:50:14;;;;;;;9.67;5.43;;;;;;;;;;5014173;28;20438;-52
2022/08/31 00:52:41;;;;;;;7.33;4.97;;;;;;;;;;4979629;28;20447;-51
2022/08/31 00:55:08;;;;;;;6.30;5.70;;;;;;;;;;5006035;28;20524;-56
2022/08/31 00:57:35;;;;;;;7.07;6.00;;;;;;;;;;5005369;28;21178;-52
2022/08/31 01:00:01;;;;;;;8.80;5.70;;;;;;;;;;5012846;28;20478;-52
2022/08/31 01:02:27;;;;;;;6.87;6.27;;;;;;;;;;5003498;28;20433;-52
2022/08/31 01:04:53;;;;;;;8.73;6.60;;;;;;;;;;5008230;28;20444;-52
2022/08/31 01:07:19;;;;;;;7.97;6.20;;;;;;;;;;4999024;28;20272;-52
2022/08/31 01:09:45;;;;;;;14.00;6.27;;;;;;;;;;5006400;28;20251;-53
2022/08/31 01:12:11;;;;;;;9.83;6.97;;;;;;;;;;5006910;28;20292;-53
2022/08/31 01:14:37;;;;;;;10.40;7.07;;;;;;;;;;5004352;28;20701;-54
2022/08/31 01:17:03;;;;;;;10.67;7.73;;;;;;;;;;5008777;28;20280;-54
2022/08/31 01:19:30;;;;;;;11.03;7.57;;;;;;;;;;5022574;28;21430;-54
2022/08/31 01:22:06;;;;;;;11.90;9.33;;;;;;;;;;5013178;28;20435;-55
2022/08/31 01:24:32;;;;;;;15.67;8.43;;;;;;;;;;4976187;28;20949;-55
2022/08/31 01:27:02;;;;;;;12.63;9.77;;;;;;;;;;5010934;28;20443;-55
2022/08/31 01:29:28;;;;;;;14.03;8.70;;;;;;;;;;4997070;28;20477;-56
2022/08/31 01:31:54;;;;;;;14.27;9.30;;;;;;;;;;5017247;28;20974;-55
2022/08/31 01:34:20;;;;;;;10.53;7.90;;;;;;;;;;5009301;28;20454;-55
2022/08/31 01:36:46;;;;;;;14.87;10.03;;;;;;;;;;5014234;28;20439;-55
2022/08/31 01:39:13;;;;;;;11.20;10.00;;;;;;;;;;4993683;28;20514;-54
2022/08/31 01:41:42;;;;;;;11.60;9.10;;;;;;;;;;5016618;28;20467;-55
2022/08/31 01:44:08;;;;;;;12.87;9.90;;;;;;;;;;4992483;28;21014;-54
2022/08/31 01:46:34;;;;;;;13.10;9.80;;;;;;;;;;5018497;28;20439;-55
2022/08/31 01:49:00;;;;;;;12.17;10.87;;;;;;;;;;4998151;28;20538;-54
2022/08/31 01:51:26;;;;;;;11.47;9.47;;;;;;;;;;5019160;28;20548;-55
2022/08/31 01:53:52;;;;;;;10.90;9.47;;;;;;;;;;5011314;28;20173;-54
2022/08/31 01:56:24;;;;;;;14.40;10.70;;;;;;;;;;5024839;28;20443;-55
2022/08/31 01:58:50;;;;;;;13.73;9.80;;;;;;;;;;4967518;28;20586;-53
2022/08/31 02:01:16;;;;;;;11.10;9.20;;;;;;;;;;5013099;28;20530;-54
2022/08/31 02:03:42;;;;;;;10.97;8.47;;;;;;;;;;5009732;28;20475;-54
2022/08/31 02:06:08;;;;;;;8.90;8.00;;;;;;;;;;5014161;28;20464;-54
2022/08/31 02:08:34;;;;;;;12.60;8.73;;;;;;;;;;5008243;28;20177;-52
2022/08/31 02:11:00;;;;;;;10.27;8.67;;;;;;;;;;5010110;28;20432;-52
2022/08/31 02:13:26;;;;;;;12.30;9.77;;;;;;;;;;4990369;28;20448;-54
2022/08/31 02:15:52;;;;;;;11.53;8.97;;;;;;;;;;5030271;28;20243;-54
2022/08/31 02:18:18;;;;;;;10.70;9.33;;;;;;;;;;5000483;28;20996;-53
2022/08/31 02:20:44;;;;;;;13.30;10.03;;;;;;;;;;5018929;28;20449;-55
2022/08/31 02:23:10;;;;;;;15.47;9.67;;;;;;;;;;5011175;28;20177;-53
2022/08/31 02:25:36;;;;;;;11.10;9.93;;;;;;;;;;5012219;28;20193;-53
2022/08/31 02:28:02;;;;;;;12.80;8.90;;;;;;;;;;4964359;28;20219;-54
2022/08/31 02:30:28;;;;;;;10.13;9.03;;;;;;;;;;5009772;28;20305;-53
2022/08/31 02:32:54;;;;;;;15.90;10.40;;;;;;;;;;4996822;28;20451;-54
2022/08/31 02:35:20;;;;;;;11.27;10.03;;;;;;;;;;5012336;28;20447;-54
2022/08/31 02:37:46;;;;;;;18.37;10.30;;;;;;;;;;4998844;28;20949;-55
2022/08/31 02:40:12;;;;;;;10.83;9.10;;;;;;;;;;5011250;28;21012;-55
2022/08/31 02:42:38;;;;;;;12.07;9.37;;;;;;;;;;5015161;28;20189;-55
2022/08/31 02:45:04;;;;;;;13.57;10.00;;;;;;;;;;4998542;28;20958;-55
2022/08/31 02:47:30;;;;;;;10.63;9.00;;;;;;;;;;5010312;28;20443;-54
2022/08/31 02:49:57;;;;;;;16.30;8.90;;;;;;;;;;5005199;28;20432;-55
2022/08/31 02:52:23;;;;;;;12.53;9.90;;;;;;;;;;5009209;28;20436;-54
2022/08/31 02:54:49;;;;;;;11.87;9.83;;;;;;;;;;5006421;28;20451;-54
2022/08/31 02:57:15;;;;;;;14.60;9.57;;;;;;;;;;5008813;28;20436;-54
2022/08/31 02:59:41;;;;;;;9.53;8.53;;;;;;;;;;4969187;28;20232;-54
2022/08/31 03:02:07;;;;;;;11.73;8.93;;;;;;;;;;5014220;28;20445;-54
2022/08/31 03:04:33;;;;;;;12.27;9.37;;;;;;;;;;5011126;28;20315;-55
2022/08/31 03:06:58;;;;;;;11.40;9.90;;;;;;;;;;5011539;28;20204;-54
2022/08/31 03:09:24;;;;;;;10.10;9.10;;;;;;;;;;5004959;28;20174;-53
2022/08/31 03:11:50;;;;;;;10.10;8.27;;;;;;;;;;5011399;28;20169;-54
2022/08/31 03:14:16;;;;;;;9.47;8.47;;;;;;;;;;4991567;28;20539;-54
2022/08/31 03:16:42;;;;;;;12.20;9.73;;;;;;;;;;5017828;28;20252;-54
2022/08/31 03:19:08;;;;;;;14.07;12.57;;;;;;;;;;4992211;28;20489;-54
2022/08/31 03:21:34;;;;;;;13.60;10.30;;;;;;;;;;5017731;28;21421;-54
2022/08/31 03:24:00;;;;;;;13.40;11.80;;;;;;;;;;4999711;28;21119;-54
2022/08/31 03:26:26;;;;;;;11.60;10.40;;;;;;;;;;5009611;28;20498;-54
2022/08/31 03:28:54;;;;;;;13.40;11.20;;;;;;;;;;5000155;28;20263;-54
2022/08/31 03:31:20;;;;;;;11.27;10.07;;;;;;;;;;5006383;28;20462;-53
2022/08/31 03:33:46;;;;;;;11.73;10.57;;;;;;;;;;4969173;28;20498;-53
2022/08/31 03:36:14;;;;;;;13.23;10.90;;;;;;;;;;5010911;28;20853;-52
2022/08/31 03:38:40;;;;;;;12.43;11.17;;;;;;;;;;4995274;28;21107;-53
2022/08/31 03:41:06;;;;;;;15.07;9.90;;;;;;;;;;5019789;28;20941;-53
2022/08/31 03:43:32;;;;;;;14.17;10.70;;;;;;;;;;5002338;28;20440;-54
2022/08/31 03:45:58;;;;;;;12.30;10.60;;;;;;;;;;5003730;28;20511;-53
2022/08/31 03:48:24;;;;;;;15.40;9.80;;;;;;;;;;4984565;28;20339;-53
2022/08/31 03:50:50;;;;;;;17.63;10.07;;;;;;;;;;5017370;28;20451;-52
2022/08/31 03:53:16;;;;;;;15.63;10.30;;;;;;;;;;5007806;28;20440;-53
2022/08/31 03:55:42;;;;;;;12.33;10.63;;;;;;;;;;5010302;28;20435;-52
2022/08/31 03:58:08;;;;;;;14.17;10.87;;;;;;;;;;5022495;28;20443;-53
2022/08/31 04:00:34;;;;;;;14.30;10.97;;;;;;;;;;5008377;28;20591;-52
2022/08/31 04:03:00;;;;;;;12.43;9.90;;;;;;;;;;4991157;28;20444;-57
2022/08/31 04:05:27;;;;;;;14.33;10.83;;;;;;;;;;4987981;28;20487;-52
2022/08/31 04:07:53;;;;;;;13.03;10.17;;;;;;;;;;5008024;28;20438;-57
2022/08/31 04:10:19;;;;;;;13.77;11.13;;;;;;;;;;5021220;28;20929;-54
2022/08/31 04:12:45;;;;;;;14.10;10.70;;;;;;;;;;5012775;28;20807;-53
2022/08/31 04:15:11;;;;;;;13.47;11.70;;;;;;;;;;5012052;28;20444;-53
2022/08/31 04:17:37;;;;;;;11.60;10.50;;;;;;;;;;5009679;28;20844;-52
2022/08/31 04:20:04;;;;;;;13.93;10.63;;;;;;;;;;5005274;28;20471;-53
2022/08/31 04:22:30;;;;;;;14.13;12.73;;;;;;;;;;5010934;28;20166;-54
2022/08/31 04:24:56;;;;;;;12.83;11.47;;;;;;;;;;4995270;28;20452;-53
2022/08/31 04:27:21;;;;;;;12.70;9.37;;;;;;;;;;5010665;28;20180;-53
2022/08/31 04:29:47;;;;;;;16.10;12.50;;;;;;;;;;5007611;28;20791;-53
2022/08/31 04:32:13;;;;;;;13.90;10.30;;;;;;;;;;5013334;28;20774;-53
2022/08/31 04:34:39;;;;;;;17.20;11.60;;;;;;;;;;5001273;28;20186;-54
2022/08/31 04:37:07;;;;;;;12.40;10.20;;;;;;;;;;5005505;28;20264;-53
2022/08/31 04:39:33;;;;;;;16.50;11.50;;;;;;;;;;4957022;28;20575;-53
2022/08/31 04:41:59;;;;;;;13.40;11.40;;;;;;;;;;5012293;28;20894;-53
2022/08/31 04:44:26;;;;;;;13.27;9.50;;;;;;;;;;5003968;28;20188;-54
2022/08/31 04:46:53;;;;;;;13.00;11.10;;;;;;;;;;5001274;28;20432;-54
2022/08/31 04:49:19;;;;;;;12.47;10.60;;;;;;;;;;5003397;28;20438;-54
2022/08/31 04:51:45;;;;;;;11.10;9.33;;;;;;;;;;5010104;28;20514;-54
2022/08/31 04:54:12;;;;;;;15.30;12.13;;;;;;;;;;4984757;28;20447;-53
2022/08/31 04:56:39;;;;;;;15.43;12.03;;;;;;;;;;5012919;28;20213;-53
2022/08/31 04:59:05;;;;;;;12.30;11.10;;;;;;;;;;5000861;28;21190;-53
2022/08/31 05:01:32;;;;;;;12.37;11.07;;;;;;;;;;5010599;28;21004;-53
2022/08/31 05:03:58;;;;;;;12.33;10.23;;;;;;;;;;5007297;28;20451;-52
2022/08/31 05:06:25;;;;;;;12.30;9.70;;;;;;;;;;5008721;28;20454;-53
2022/08/31 05:08:52;;;;;;;12.83;10.20;;;;;;;;;;4991595;28;20444;-53
2022/08/31 05:11:18;;;;;;;13.07;9.90;;;;;;;;;;4988022;28;20555;-54
2022/08/31 05:13:44;;;;;;;11.30;9.73;;;;;;;;;;5008130;28;20522;-53
2022/08/31 05:16:11;;;;;;;10.87;9.87;;;;;;;;;;4999828;28;20539;-53
2022/08/31 05:18:38;;;;;;;10.13;9.13;;;;;;;;;;5006564;28;20509;-53
2022/08/31 05:21:10;;;;;;;9.17;8.03;;;;;;;;;;4996375;28;20593;-53
2022/08/31 05:23:36;;;;;;;9.83;8.70;;;;;;;;;;5011450;28;20957;-53
2022/08/31 05:26:02;;;;;;;10.67;9.43;;;;;;;;;;4992428;28;20462;-53
2022/08/31 05:28:28;;;;;;;10.87;8.60;;;;;;;;;;5012628;28;21001;-53
2022/08/31 05:30:56;;;;;;;9.63;8.57;;;;;;;;;;4996836;28;20551;-53
2022/08/31 05:33:22;;;;;;;8.70;7.80;;;;;;;;;;5014977;28;20819;-53
2022/08/31 05:35:48;;;;;;;9.27;8.17;;;;;;;;;;5003076;28;20443;-53
2022/08/31 05:38:14;;;;;;;10.07;9.07;;;;;;;;;;5012044;28;20462;-53
2022/08/31 05:40:40;;;;;;;10.80;9.70;;;;;;;;;;4964298;28;20467;-53
2022/08/31 05:43:06;;;;;;;9.20;8.10;;;;;;;;;;5008334;28;20180;-53
2022/08/31 05:45:32;;;;;;;9.50;8.40;;;;;;;;;;5003414;28;20188;-53
2022/08/31 05:47:58;;;;;;;9.10;7.77;;;;;;;;;;5018091;28;20272;-53
2022/08/31 05:50:24;;;;;;;11.50;8.70;;;;;;;;;;4994910;28;20762;-53
2022/08/31 05:52:49;;;;;;;9.63;8.63;;;;;;;;;;5019025;28;20255;-53
2022/08/31 05:55:15;;;;;;;11.67;10.27;;;;;;;;;;4990153;28;20180;-54
2022/08/31 05:57:41;;;;;;;11.57;9.87;;;;;;;;;;5018466;28;20235;-53
2022/08/31 06:00:09;;;;;;;11.77;9.60;;;;;;;;;;5003401;28;21029;-54
2022/08/31 06:02:35;;;;;;;11.40;10.13;;;;;;;;;;5019369;28;21232;-53
2022/08/31 06:05:01;;;;;;;16.27;10.43;;;;;;;;;;5006499;28;20438;-53
2022/08/31 06:07:27;;;;;;;12.57;11.00;;;;;;;;;;5013966;28;20439;-52
2022/08/31 06:09:54;;;;;;;12.57;10.10;;;;;;;;;;5004228;28;20181;-54
2022/08/31 06:12:24;;;;;;;12.23;9.67;;;;;;;;;;5014474;28;20185;-53
2022/08/31 06:14:50;;;;;;;11.90;9.70;;;;;;;;;;4972254;28;20459;-53
2022/08/31 06:17:16;;;;;;;12.30;10.67;;;;;;;;;;5014214;28;20424;-53
2022/08/31 06:19:42;;;;;;;13.93;10.33;;;;;;;;;;5011803;28;20216;-53
2022/08/31 06:22:08;;;;;;;12.17;9.57;;;;;;;;;;5014307;28;20436;-54
2022/08/31 06:24:35;;;;;;;13.50;10.47;;;;;;;;;;4990570;28;20466;-53
2022/08/31 06:27:02;;;;;;;13.43;10.23;;;;;;;;;;5013464;28;20535;-54
2022/08/31 06:29:31;;;;;;;13.20;9.10;;;;;;;;;;5003080;28;20473;-54
2022/08/31 06:31:59;;;;;;;13.70;10.00;;;;;;;;;;5015167;28;20436;-54
2022/08/31 06:34:27;;;;;;;12.50;10.37;;;;;;;;;;5006878;28;21004;-54
2022/08/31 06:36:53;;;;;;;11.93;9.00;;;;;;;;;;5006611;28;20837;-53
2022/08/31 06:39:19;;;;;;;11.20;8.80;;;;;;;;;;5005070;28;20480;-53
2022/08/31 06:41:47;;;;;;;13.20;9.70;;;;;;;;;;4990716;28;20209;-54
2022/08/31 06:44:13;;;;;;;10.57;9.47;;;;;;;;;;5014726;28;20448;-52
2022/08/31 06:46:39;;;;;;;11.80;9.80;;;;;;;;;;4963070;28;21099;-53
2022/08/31 06:49:05;;;;;;;13.30;10.43;;;;;;;;;;5016844;28;20463;-54
2022/08/31 06:51:35;;;;;;;9.90;8.77;;;;;;;;;;5000707;28;20893;-54
2022/08/31 06:54:02;;;;;;;10.87;9.77;;;;;;;;;;5015937;28;20931;-53
2022/08/31 06:56:28;;;;;;;11.63;8.90;;;;;;;;;;4994187;28;20980;-53
2022/08/31 06:58:53;;;;;;;12.67;8.80;;;;;;;;;;5017761;28;20456;-54
2022/08/31 07:01:25;;;;;;;17.10;9.77;;;;;;;;;;4993807;28;20486;-53
2022/08/31 07:03:51;;;;;;;11.07;9.07;;;;;;;;;;5018204;28;20432;-52
2022/08/31 07:06:19;;;;;;;10.00;7.67;;;;;;;;;;5000118;28;20444;-54
2022/08/31 07:08:45;;;;;;;14.07;9.47;;;;;;;;;;5016815;28;20497;-53
2022/08/31 07:11:14;;;;;;;10.43;8.20;;;;;;;;;;5002367;28;21195;-54
2022/08/31 07:13:40;;;;;;;10.40;9.30;;;;;;;;;;5014407;28;20454;-54
2022/08/31 07:16:07;;;;;;;12.33;10.33;;;;;;;;;;4966455;28;20531;-55
2022/08/31 07:18:33;;;;;;;12.20;9.10;;;;;;;;;;5009956;28;20464;-54
2022/08/31 07:21:09;;;;;;;10.40;8.10;;;;;;;;;;4998538;28;20442;-53
2022/08/31 07:23:35;;;;;;;9.30;8.13;;;;;;;;;;5014571;28;20431;-53
2022/08/31 07:26:08;;;;;;;10.03;9.00;;;;;;;;;;4992482;28;20439;-54
2022/08/31 07:28:34;;;;;;;12.27;8.70;;;;;;;;;;5013942;28;20428;-53
2022/08/31 07:31:02;;;;;;;10.20;8.27;;;;;;;;;;5003467;28;20443;-54
2022/08/31 07:33:33;;;;;;;11.27;7.40;;;;;;;;;;5005383;28;20435;-53
2022/08/31 07:35:59;;;;;;;11.30;9.47;;;;;;;;;;5016356;28;21304;-54
2022/08/31 07:43:55;;;;;;;9.43;8.43;;;;;;;;;;5012987;28;20447;-54
2022/08/31 07:46:22;;;;;;;10.30;8.80;;;;;;;;;;4965989;28;20440;-54
2022/08/31 07:48:48;;;;;;;11.50;8.07;;;;;;;;;;5010944;28;20442;-54
2022/08/31 07:51:22;;;;;;;11.00;9.37;;;;;;;;;;4998934;28;20435;-55
2022/08/31 07:53:48;;;;;;;9.57;8.60;;;;;;;;;;5015622;28;20205;-52
2022/08/31 07:56:16;;;;;;;10.83;9.73;;;;;;;;;;4996069;28;20768;-52
2022/08/31 07:58:42;;;;;;;9.47;8.53;;;;;;;;;;5017110;28;20537;-51
2022/08/31 08:01:08;;;;;;;10.43;8.80;;;;;;;;;;4968504;28;20448;-53
2022/08/31 08:03:34;;;;;;;10.60;8.77;;;;;;;;;;5008397;28;20212;-54
2022/08/31 08:06:00;;;;;;;9.60;8.50;;;;;;;;;;5002756;28;20424;-53
2022/08/31 08:08:27;;;;;;;9.57;8.63;;;;;;;;;;5003230;28;20822;-53
2022/08/31 08:10:53;;;;;;;9.97;8.97;;;;;;;;;;4994485;28;20447;-54
2022/08/31 08:13:19;;;;;;;9.90;8.10;;;;;;;;;;5016057;28;20439;-54
2022/08/31 08:15:47;;;;;;;17.00;8.70;;;;;;;;;;4966726;28;21198;-54
2022/08/31 08:18:14;;;;;;;10.33;9.33;;;;;;;;;;5012056;28;20448;-53
2022/08/31 08:20:40;;;;;;;13.17;9.40;;;;;;;;;;4989079;28;20444;-53
2022/08/31 08:23:11;;;;;;;12.97;9.30;;;;;;;;;;5020972;28;21725;-54
2022/08/31 08:25:37;;;;;;;10.93;8.23;;;;;;;;;;4987183;28;20450;-53
2022/08/31 08:28:03;;;;;;;13.87;9.10;;;;;;;;;;5017184;28;20799;-53
2022/08/31 08:30:29;;;;;;;9.97;9.07;;;;;;;;;;5009754;28;20512;-54
2022/08/31 08:33:00;;;;;;;11.83;8.47;;;;;;;;;;5010382;28;20960;-53
2022/08/31 08:35:31;;;;;;;12.43;9.87;;;;;;;;;;5005383;28;20471;-54
2022/08/31 08:37:57;;;;;;;10.90;8.57;;;;;;;;;;5009787;28;20447;-54
2022/08/31 08:40:27;;;;;;;9.10;8.00;;;;;;;;;;5003632;28;21367;-53
2022/08/31 08:42:53;;;;;;;13.30;10.23;;;;;;;;;;5010611;28;20432;-53
2022/08/31 08:45:20;;;;;;;11.83;8.70;;;;;;;;;;5010755;28;20436;-53
2022/08/31 08:47:48;;;;;;;9.97;8.93;;;;;;;;;;5011094;28;20502;-53
2022/08/31 08:50:17;;;;;;;9.87;8.87;;;;;;;;;;4990564;28;20447;-52
2022/08/31 08:52:44;;;;;;;11.27;9.37;;;;;;;;;;4991807;28;20471;-53
2022/08/31 08:55:17;;;;;;;11.33;10.13;;;;;;;;;;5003408;28;20454;-54
2022/08/31 08:57:43;;;;;;;10.30;9.20;;;;;;;;;;5007291;28;20448;-54
2022/08/31 09:00:14;;;;;;;10.53;9.00;;;;;;;;;;5010399;28;20901;-54
2022/08/31 09:02:57;;;;;;;13.93;9.80;;;;;;;;;;5004685;28;20454;-53
2022/08/31 09:05:41;;;;;;;11.13;9.90;;;;;;;;;;5008102;28;21082;-53
2022/08/31 09:08:31;;;;;;;10.50;9.30;;;;;;;;;;5010825;28;20464;-53
2022/08/31 09:10:57;;;;;;;11.37;9.00;;;;;;;;;;4992898;28;20495;-53
2022/08/31 09:13:37;;;;;;;12.20;9.70;;;;;;;;;;5032389;28;20837;-54
2022/08/31 09:16:20;;;;;;;13.00;10.43;;;;;;;;;;5009836;28;20446;-53
2022/08/31 09:18:49;;;;;;;11.30;9.37;;;;;;;;;;5015769;28;20954;-54
2022/08/31 09:21:19;;;;;;;12.80;10.63;;;;;;;;;;4967029;28;20459;-54
2022/08/31 09:23:47;;;;;;;11.00;9.10;;;;;;;;;;5014285;28;20424;-54
2022/08/31 09:26:17;;;;;;;11.60;9.43;;;;;;;;;;4988864;28;20444;-53
2022/08/31 09:28:46;;;;;;;11.20;9.30;;;;;;;;;;5019105;28;20578;-54
2022/08/31 09:31:33;;;;;;;14.33;9.93;;;;;;;;;;4970157;28;20451;-54
2022/08/31 09:33:59;;;;;;;11.50;9.60;;;;;;;;;;5023086;28;20782;-53
2022/08/31 09:36:32;;;;;;;10.57;9.07;;;;;;;;;;5025258;28;20439;-54
2022/08/31 09:39:16;;;;;;;15.83;11.07;;;;;;;;;;5014453;28;20479;-54
2022/08/31 09:41:42;;;;;;;11.07;9.97;;;;;;;;;;5013769;28;20432;-54
2022/08/31 09:44:23;;;;;;;12.97;9.33;;;;;;;;;;5007458;28;20516;-52
2022/08/31 09:46:50;;;;;;;14.57;10.37;;;;;;;;;;4994029;28;20520;-55
2022/08/31 09:49:20;;;;;;;11.63;9.57;;;;;;;;;;5018937;28;20435;-54
2022/08/31 09:51:48;;;;;;;11.23;9.97;;;;;;;;;;4968385;28;20482;-54
2022/08/31 09:56:59;;;;;;;11.60;9.53;;;;;;;;;;5004455;28;20443;-53
2022/08/31 09:59:44;;;;;;;11.57;9.17;;;;;;;;;;5013089;28;20540;-54
2022/08/31 10:02:25;;;;;;;9.07;8.13;;;;;;;;;;4991842;28;20453;-54
2022/08/31 10:04:53;;;;;;;11.37;9.33;;;;;;;;;;5019689;28;20442;-54
2022/08/31 10:07:31;;;;;;;9.23;8.10;;;;;;;;;;5001627;28;20436;-55
2022/08/31 10:09:58;;;;;;;10.53;8.57;;;;;;;;;;5017909;28;20506;-53
2022/08/31 10:12:42;;;;;;;13.70;7.87;;;;;;;;;;4999137;28;20452;-54
2022/08/31 10:15:13;;;;;;;13.23;8.20;;;;;;;;;;5014343;28;20496;-54
2022/08/31 10:18:01;;;;;;;9.80;7.97;;;;;;;;;;5005664;28;20454;-53
2022/08/31 10:20:29;;;;;;;11.50;8.10;;;;;;;;;;5013893;28;20572;-54
2022/08/31 10:23:05;;;;;;;9.90;7.77;;;;;;;;;;4945850;28;20546;-54
2022/08/31 10:25:32;;;;;;;12.17;7.90;;;;;;;;;;5016519;28;20443;-53
2022/08/31 10:28:07;;;;;;;9.57;8.40;;;;;;;;;;5010779;28;20608;-54
2022/08/31 10:30:39;;;;;;;11.50;8.67;;;;;;;;;;5032126;28;20457;-54
2022/08/31 10:33:08;;;;;;;11.53;8.57;;;;;;;;;;4988371;28;20436;-53
2022/08/31 10:35:44;;;;;;;9.30;8.30;;;;;;;;;;5030519;28;20424;-54
2022/08/31 10:38:17;;;;;;;9.90;8.90;;;;;;;;;;5005370;28;20721;-55
2022/08/31 10:41:02;;;;;;;10.40;7.20;;;;;;;;;;5015217;28;20464;-55
2022/08/31 10:43:30;;;;;;;10.90;8.93;;;;;;;;;;5011912;28;21450;-54
2022/08/31 10:45:56;;;;;;;13.73;8.70;;;;;;;;;;5030492;28;20505;-54
2022/08/31 10:48:23;;;;;;;10.47;8.60;;;;;;;;;;5021210;28;20519;-55
2022/08/31 10:51:08;;;;;;;9.60;8.70;;;;;;;;;;5009675;28;20444;-54
2022/08/31 10:53:40;;;;;;;9.13;8.10;;;;;;;;;;4968932;28;20495;-53
2022/08/31 10:56:13;;;;;;;9.67;8.77;;;;;;;;;;5012512;28;20464;-54
2022/08/31 10:58:48;;;;;;;10.27;8.50;;;;;;;;;;4991031;28;20484;-54
2022/08/31 11:01:16;;;;;;;9.40;7.80;;;;;;;;;;5019323;28;20948;-54
2022/08/31 11:03:48;;;;;;;9.10;8.13;;;;;;;;;;4992810;28;20435;-54
2022/08/31 11:06:23;;;;;;;10.20;8.80;;;;;;;;;;5012279;28;20440;-54
2022/08/31 11:08:53;;;;;;;9.17;8.37;;;;;;;;;;5005073;28;20434;-54
2022/08/31 11:11:23;;;;;;;9.50;8.60;;;;;;;;;;5012825;28;20432;-53
2022/08/31 11:14:19;;;;;;;10.47;8.10;;;;;;;;;;5004519;28;20440;-55
2022/08/31 11:16:50;;;;;;;9.70;8.40;;;;;;;;;;4969660;28;20457;-54
2022/08/31 11:19:37;;;;;;;8.93;8.03;;;;;;;;;;5006298;28;20554;-54
2022/08/31 11:22:03;;;;;;;8.80;7.07;;;;;;;;;;5011804;28;20427;-53
2022/08/31 11:24:29;;;;;;;9.93;8.83;;;;;;;;;;4965786;28;20759;-53
2022/08/31 11:26:58;;;;;;;10.10;8.87;;;;;;;;;;5010228;28;20430;-55
2022/08/31 11:29:43;;;;;;;11.53;8.30;;;;;;;;;;4988499;28;20342;-54
2022/08/31 11:32:19;;;;;;;9.57;8.60;;;;;;;;;;5016333;28;20427;-54
2022/08/31 11:34:55;;;;;;;9.90;8.90;;;;;;;;;;4991680;28;20465;-54
2022/08/31 11:37:40;;;;;;;10.23;8.67;;;;;;;;;;5018555;28;20435;-55
2022/08/31 11:40:09;;;;;;;11.33;9.27;;;;;;;;;;4988113;28;20489;-54
2022/08/31 11:42:36;;;;;;;11.30;8.63;;;;;;;;;;5016321;28;20471;-54
2022/08/31 11:45:21;;;;;;;11.00;8.17;;;;;;;;;;4991320;28;20467;-54
2022/08/31 11:47:50;;;;;;;11.67;9.23;;;;;;;;;;5013441;28;20443;-54
2022/08/31 11:50:22;;;;;;;10.17;8.83;;;;;;;;;;5001324;28;20461;-54
2022/08/31 11:52:52;;;;;;;9.70;8.53;;;;;;;;;;5025705;28;20443;-54
2022/08/31 11:55:19;;;;;;;11.27;8.93;;;;;;;;;;4993931;28;20510;-55
2022/08/31 11:58:08;;;;;;;9.60;8.63;;;;;;;;;;5015275;28;20471;-53
2022/08/31 12:00:49;;;;;;;9.33;8.37;;;;;;;;;;4977282;28;20490;-54
2022/08/31 12:03:42;;;;;;;10.73;9.40;;;;;;;;;;5004766;28;20440;-54
2022/08/31 12:06:09;;;;;;;9.77;8.73;;;;;;;;;;5015546;28;20447;-54
2022/08/31 12:08:45;;;;;;;9.33;8.20;;;;;;;;;;4996316;28;20437;-54
2022/08/31 12:11:11;;;;;;;9.70;8.73;;;;;;;;;;5004206;28;20818;-54
2022/08/31 12:13:43;;;;;;;9.57;8.30;;;;;;;;;;4992438;28;21605;-54
2022/08/31 12:16:21;;;;;;;8.67;7.87;;;;;;;;;;5012914;28;20555;-54
2022/08/31 12:19:12;;;;;;;9.20;8.27;;;;;;;;;;5008697;28;20525;-54
2022/08/31 12:24:41;;;;;;;9.30;8.30;;;;;;;;;;4997678;28;20489;-54
2022/08/31 12:27:10;;;;;;;10.67;8.47;;;;;;;;;;5013203;28;20423;-55
2022/08/31 12:29:36;;;;;;;9.60;8.60;;;;;;;;;;4965613;28;20447;-54
2022/08/31 12:32:29;;;;;;;9.30;8.40;;;;;;;;;;5007634;28;20510;-54
2022/08/31 12:35:04;;;;;;;10.23;9.23;;;;;;;;;;4981093;28;20444;-53
2022/08/31 12:37:31;;;;;;;9.60;8.70;;;;;;;;;;5011397;28;20954;-54
2022/08/31 12:40:16;;;;;;;11.17;10.17;;;;;;;;;;5005949;28;20578;-57
2022/08/31 12:42:55;;;;;;;11.47;9.50;;;;;;;;;;5021586;28;20428;-53
2022/08/31 12:45:41;;;;;;;10.80;9.43;;;;;;;;;;5002911;28;20867;-54
2022/08/31 12:48:12;;;;;;;10.23;9.20;;;;;;;;;;4990999;28;20524;-54
2022/08/31 12:50:45;;;;;;;10.33;9.27;;;;;;;;;;5001156;28;20474;-53
2022/08/31 12:53:13;;;;;;;9.33;8.40;;;;;;;;;;4996214;28;20932;-55
2022/08/31 12:55:42;;;;;;;10.10;9.13;;;;;;;;;;5012825;28;20440;-54
2022/08/31 12:58:22;;;;;;;11.87;10.77;;;;;;;;;;5001766;28;20847;-54
2022/08/31 13:00:48;;;;;;;10.20;9.20;;;;;;;;;;5000136;28;20459;-53
2022/08/31 13:03:28;;;;;;;9.70;8.70;;;;;;;;;;4982568;28;20432;-52
2022/08/31 13:06:00;;;;;;;10.37;9.27;;;;;;;;;;5005096;28;20440;-53
2022/08/31 13:08:26;;;;;;;10.10;7.57;;;;;;;;;;5021652;28;20471;-53
2022/08/31 13:10:51;;;;;;;9.43;8.07;;;;;;;;;;5015131;28;20467;-53
2022/08/31 13:13:22;;;;;;;9.43;8.53;;;;;;;;;;5008865;28;20957;-53
2022/08/31 13:15:48;;;;;;;12.00;8.13;;;;;;;;;;5008519;28;20251;-53
2022/08/31 13:18:15;;;;;;;8.90;8.00;;;;;;;;;;5001778;28;20977;-54
2022/08/31 13:20:45;;;;;;;8.90;8.10;;;;;;;;;;5030835;28;20483;-53
2022/08/31 13:23:13;;;;;;;9.93;8.70;;;;;;;;;;4999331;28;20807;-54
2022/08/31 13:25:39;;;;;;;10.63;8.90;;;;;;;;;;5014717;28;20486;-53
2022/08/31 13:28:06;;;;;;;9.97;8.97;;;;;;;;;;5010083;28;20432;-54
2022/08/31 13:30:37;;;;;;;11.00;9.57;;;;;;;;;;5013176;28;20432;-54
2022/08/31 13:33:14;;;;;;;10.47;8.60;;;;;;;;;;5011246;28;20455;-54
2022/08/31 13:35:48;;;;;;;11.33;8.40;;;;;;;;;;5005768;28;20443;-54
2022/08/31 13:38:15;;;;;;;10.80;8.33;;;;;;;;;;4996396;28;20890;-53
2022/08/31 13:40:49;;;;;;;11.13;8.47;;;;;;;;;;5026391;28;20475;-54
2022/08/31 13:43:15;;;;;;;17.20;8.57;;;;;;;;;;5027801;28;20451;-54
2022/08/31 13:45:57;;;;;;;9.20;8.30;;;;;;;;;;5010265;28;20494;-54
2022/08/31 13:48:28;;;;;;;9.00;8.20;;;;;;;;;;5004581;28;20443;-55
2022/08/31 13:50:57;;;;;;;9.20;8.30;;;;;;;;;;5012442;28;20526;-53
2022/08/31 13:53:38;;;;;;;10.60;9.50;;;;;;;;;;5003909;28;20440;-53
2022/08/31 13:59:23;;;;;;;10.00;8.43;;;;;;;;;;4999608;28;20466;-55
2022/08/31 14:01:54;;;;;;;9.53;8.40;;;;;;;;;;5010982;28;20435;-55
2022/08/31 14:04:47;;;;;;;11.10;9.57;;;;;;;;;;5008252;28;20506;-54
2022/08/31 14:07:19;;;;;;;8.80;7.97;;;;;;;;;;4967408;28;20472;-54
2022/08/31 14:09:45;;;;;;;8.67;7.90;;;;;;;;;;5007811;28;20436;-54
2022/08/31 14:12:20;;;;;;;9.50;8.70;;;;;;;;;;5007720;28;20863;-56
2022/08/31 14:14:47;;;;;;;9.50;7.90;;;;;;;;;;5011286;28;20444;-54
2022/08/31 14:17:16;;;;;;;9.37;8.40;;;;;;;;;;5005330;28;20741;-54
2022/08/31 14:19:43;;;;;;;9.47;8.47;;;;;;;;;;5010561;28;20496;-54
2022/08/31 14:22:16;;;;;;;9.47;7.77;;;;;;;;;;5011560;28;20455;-54
2022/08/31 14:24:42;;;;;;;10.13;8.50;;;;;;;;;;5007658;28;20463;-54
2022/08/31 14:27:10;;;;;;;11.10;8.20;;;;;;;;;;4992256;28;20826;-54
2022/08/31 14:29:40;;;;;;;10.57;8.87;;;;;;;;;;5015168;28;20448;-55
2022/08/31 14:32:06;;;;;;;12.97;8.00;;;;;;;;;;4989141;28;20424;-53
2022/08/31 14:34:39;;;;;;;11.17;9.23;;;;;;;;;;5025644;28;20451;-55
2022/08/31 14:37:06;;;;;;;9.43;8.53;;;;;;;;;;4977681;28;25277;-53
2022/08/31 14:39:32;;;;;;;9.07;7.70;;;;;;;;;;5004800;28;21341;-54
2022/08/31 14:41:59;;;;;;;9.07;8.03;;;;;;;;;;4996583;28;20549;-55
2022/08/31 14:44:26;;;;;;;10.20;9.07;;;;;;;;;;5005674;28;20439;-54
2022/08/31 14:46:52;;;;;;;8.47;7.03;;;;;;;;;;5012009;28;20440;-54
2022/08/31 14:49:18;;;;;;;10.00;7.83;;;;;;;;;;5010477;28;20442;-54
2022/08/31 14:51:45;;;;;;;10.40;8.70;;;;;;;;;;5010741;28;20447;-54
2022/08/31 14:54:11;;;;;;;7.87;7.07;;;;;;;;;;5003062;28;20522;-54
2022/08/31 14:56:45;;;;;;;9.70;8.70;;;;;;;;;;5006627;28;20440;-55
2022/08/31 14:59:12;;;;;;;12.87;8.50;;;;;;;;;;5002573;28;20480;-54
2022/08/31 15:01:43;;;;;;;8.33;7.53;;;;;;;;;;5012200;28;20447;-54